sensor_id;sensor_type;location;lat;lon;timestamp;pressure;altitude;pressure_sealevel;temperature;humidity
32733;BME280;11867;51.198;11.966;2023-06-22T00:00:19;100737.31;;;23.35;93.01
32733;BME280;11867;51.198;11.966;2023-06-22T00:01:44;100744.00;;;23.47;91.93
32733;BME280;11867;51.198;11.966;2023-06-22T00:03:07;100735.75;;;23.50;91.90
32733;BME280;11867;51.198;11.966;2023-06-22T00:04:29;100744.41;;;23.65;91.24
32733;BME280;11867;51.198;11.966;2023-06-22T00:05:52;100750.00;;;23.65;90.79
32733;BME280;11867;51.198;11.966;2023-06-22T00:07:14;100747.66;;;23.67;90.65
32733;BME280;11867;51.198;11.966;2023-06-22T00:08:37;100753.34;;;23.54;90.55
32733;BME280;11867;51.198;11.966;2023-06-22T00:10:00;100752.53;;;23.38;91.43
32733;BME280;11867;51.198;11.966;2023-06-22T00:11:22;100760.59;;;23.43;91.51
32733;BME280;11867;51.198;11.966;2023-06-22T00:12:46;100755.81;;;23.44;91.68
32733;BME280;11867;51.198;11.966;2023-06-22T00:14:08;100754.47;;;23.37;92.15
32733;BME280;11867;51.198;11.966;2023-06-22T00:15:30;100743.16;;;23.30;92.90
32733;BME280;11867;51.198;11.966;2023-06-22T00:16:54;100745.41;;;23.25;93.13
32733;BME280;11867;51.198;11.966;2023-06-22T00:18:18;100741.09;;;23.27;93.26
32733;BME280;11867;51.198;11.966;2023-06-22T00:19:40;100744.50;;;23.21;93.58
32733;BME280;11867;51.198;11.966;2023-06-22T00:21:04;100744.41;;;23.33;93.01
32733;BME280;11867;51.198;11.966;2023-06-22T00:22:28;100734.94;;;23.34;92.56
32733;BME280;11867;51.198;11.966;2023-06-22T00:23:50;100745.06;;;23.42;92.05
32733;BME280;11867;51.198;11.966;2023-06-22T00:25:13;100736.09;;;23.49;91.53
32733;BME280;11867;51.198;11.966;2023-06-22T00:26:35;100731.41;;;23.37;91.85
32733;BME280;11867;51.198;11.966;2023-06-22T00:27:58;100738.69;;;23.26;92.66
32733;BME280;11867;51.198;11.966;2023-06-22T00:29:20;100745.69;;;23.20;92.97
32733;BME280;11867;51.198;11.966;2023-06-22T00:30:46;100744.94;;;23.23;92.87
32733;BME280;11867;51.198;11.966;2023-06-22T00:32:10;100747.56;;;23.31;92.58
32733;BME280;11867;51.198;11.966;2023-06-22T00:33:32;100745.91;;;23.14;93.43
32733;BME280;11867;51.198;11.966;2023-06-22T00:34:55;100741.84;;;22.68;96.65
32733;BME280;11867;51.198;11.966;2023-06-22T00:36:17;100738.38;;;22.30;98.88
32733;BME280;11867;51.198;11.966;2023-06-22T00:37:40;100738.16;;;21.74;100.00
32733;BME280;11867;51.198;11.966;2023-06-22T00:40:27;100745.78;;;21.52;100.00
32733;BME280;11867;51.198;11.966;2023-06-22T00:41:50;100738.16;;;21.74;100.00
32733;BME280;11867;51.198;11.966;2023-06-22T00:43:12;100740.22;;;22.14;100.00
32733;BME280;11867;51.198;11.966;2023-06-22T00:44:36;100739.59;;;22.45;99.45
32733;BME280;11867;51.198;11.966;2023-06-22T00:45:59;100738.84;;;22.61;98.07
32733;BME280;11867;51.198;11.966;2023-06-22T00:47:23;100744.69;;;22.71;97.07
32733;BME280;11867;51.198;11.966;2023-06-22T00:48:46;100736.59;;;22.79;96.83
32733;BME280;11867;51.198;11.966;2023-06-22T00:50:12;100728.69;;;22.81;96.48
32733;BME280;11867;51.198;11.966;2023-06-22T00:51:40;100729.44;;;22.65;96.70
32733;BME280;11867;51.198;11.966;2023-06-22T00:53:08;100727.81;;;22.11;100.00
32733;BME280;11867;51.198;11.966;2023-06-22T00:54:31;100722.78;;;21.52;100.00
32733;BME280;11867;51.198;11.966;2023-06-22T00:55:55;100721.00;;;21.47;100.00
32733;BME280;11867;51.198;11.966;2023-06-22T00:57:22;100727.41;;;21.14;100.00
32733;BME280;11867;51.198;11.966;2023-06-22T00:58:47;100723.50;;;21.15;100.00
32733;BME280;11867;51.198;11.966;2023-06-22T01:00:11;100730.06;;;21.11;100.00
32733;BME280;11867;51.198;11.966;2023-06-22T01:01:38;100728.69;;;21.17;100.00
32733;BME280;11867;51.198;11.966;2023-06-22T01:03:04;100729.88;;;21.41;100.00
32733;BME280;11867;51.198;11.966;2023-06-22T01:04:35;100730.88;;;21.69;100.00
32733;BME280;11867;51.198;11.966;2023-06-22T01:06:02;100740.69;;;21.91;100.00
32733;BME280;11867;51.198;11.966;2023-06-22T01:07:34;100734.19;;;22.12;100.00
32733;BME280;11867;51.198;11.966;2023-06-22T01:09:04;100742.16;;;22.13;100.00
32733;BME280;11867;51.198;11.966;2023-06-22T01:10:31;100727.28;;;21.93;100.00
32733;BME280;11867;51.198;11.966;2023-06-22T01:11:58;100736.16;;;22.11;100.00
32733;BME280;11867;51.198;11.966;2023-06-22T01:13:28;100724.72;;;21.64;100.00
32733;BME280;11867;51.198;11.966;2023-06-22T01:14:55;100725.09;;;21.62;100.00
32733;BME280;11867;51.198;11.966;2023-06-22T01:16:21;100720.56;;;21.58;100.00
32733;BME280;11867;51.198;11.966;2023-06-22T01:17:47;100725.78;;;21.84;100.00
32733;BME280;11867;51.198;11.966;2023-06-22T01:19:24;100732.56;;;22.11;100.00
32733;BME280;11867;51.198;11.966;2023-06-22T01:20:52;100735.22;;;22.32;99.96
32733;BME280;11867;51.198;11.966;2023-06-22T01:22:16;100725.59;;;22.42;98.98
32733;BME280;11867;51.198;11.966;2023-06-22T01:23:50;100713.09;;;22.35;99.36
32733;BME280;11867;51.198;11.966;2023-06-22T01:25:19;100726.09;;;22.31;98.98
32733;BME280;11867;51.198;11.966;2023-06-22T01:26:54;100727.25;;;22.18;100.00
32733;BME280;11867;51.198;11.966;2023-06-22T01:30:16;100742.06;;;22.22;100.00
32733;BME280;11867;51.198;11.966;2023-06-22T01:31:39;100739.16;;;22.31;99.84
32733;BME280;11867;51.198;11.966;2023-06-22T01:33:04;100748.16;;;22.40;98.99
32733;BME280;11867;51.198;11.966;2023-06-22T01:34:27;100751.44;;;22.30;99.16
32733;BME280;11867;51.198;11.966;2023-06-22T01:35:51;100741.69;;;22.36;99.19
32733;BME280;11867;51.198;11.966;2023-06-22T01:37:14;100745.97;;;22.46;98.51
32733;BME280;11867;51.198;11.966;2023-06-22T01:38:38;100742.72;;;22.44;98.01
32733;BME280;11867;51.198;11.966;2023-06-22T01:40:01;100736.94;;;22.36;98.60
32733;BME280;11867;51.198;11.966;2023-06-22T01:41:26;100735.13;;;22.28;99.15
32733;BME280;11867;51.198;11.966;2023-06-22T01:42:50;100732.53;;;21.37;100.00
32733;BME280;11867;51.198;11.966;2023-06-22T01:44:13;100726.84;;;20.75;100.00
32733;BME280;11867;51.198;11.966;2023-06-22T01:45:38;100729.56;;;20.96;100.00
32733;BME280;11867;51.198;11.966;2023-06-22T01:47:00;100731.44;;;20.71;100.00
32733;BME280;11867;51.198;11.966;2023-06-22T01:48:23;100735.47;;;20.32;100.00
32733;BME280;11867;51.198;11.966;2023-06-22T01:49:48;100735.88;;;20.43;100.00
32733;BME280;11867;51.198;11.966;2023-06-22T01:51:10;100733.75;;;20.69;100.00
32733;BME280;11867;51.198;11.966;2023-06-22T01:52:33;100731.78;;;20.70;100.00
32733;BME280;11867;51.198;11.966;2023-06-22T01:53:56;100729.13;;;20.73;100.00
32733;BME280;11867;51.198;11.966;2023-06-22T01:55:19;100733.31;;;20.80;100.00
32733;BME280;11867;51.198;11.966;2023-06-22T01:56:41;100737.78;;;20.51;100.00
32733;BME280;11867;51.198;11.966;2023-06-22T01:58:04;100730.44;;;20.46;100.00
32733;BME280;11867;51.198;11.966;2023-06-22T01:59:30;100725.66;;;20.13;100.00
32733;BME280;11867;51.198;11.966;2023-06-22T02:00:58;100718.41;;;20.00;100.00
32733;BME280;11867;51.198;11.966;2023-06-22T02:02:27;100718.50;;;20.12;100.00
32733;BME280;11867;51.198;11.966;2023-06-22T02:03:57;100726.63;;;20.39;100.00
32733;BME280;11867;51.198;11.966;2023-06-22T02:05:24;100719.53;;;20.29;100.00
32733;BME280;11867;51.198;11.966;2023-06-22T02:06:50;100719.59;;;20.20;100.00
32733;BME280;11867;51.198;11.966;2023-06-22T02:08:17;100723.50;;;20.19;100.00
32733;BME280;11867;51.198;11.966;2023-06-22T02:09:44;100728.38;;;20.22;100.00
32733;BME280;11867;51.198;11.966;2023-06-22T02:11:08;100730.59;;;20.08;100.00
32733;BME280;11867;51.198;11.966;2023-06-22T02:12:32;100730.25;;;20.09;100.00
32733;BME280;11867;51.198;11.966;2023-06-22T02:13:57;100732.88;;;20.06;100.00
32733;BME280;11867;51.198;11.966;2023-06-22T02:15:20;100725.72;;;20.05;100.00
32733;BME280;11867;51.198;11.966;2023-06-22T02:16:45;100722.47;;;20.03;100.00
32733;BME280;11867;51.198;11.966;2023-06-22T02:18:08;100715.97;;;19.99;100.00
32733;BME280;11867;51.198;11.966;2023-06-22T02:19:32;100713.75;;;19.92;100.00
32733;BME280;11867;51.198;11.966;2023-06-22T02:20:55;100712.84;;;19.79;100.00
32733;BME280;11867;51.198;11.966;2023-06-22T02:22:17;100709.38;;;19.91;100.00
32733;BME280;11867;51.198;11.966;2023-06-22T02:23:40;100714.84;;;20.00;100.00
32733;BME280;11867;51.198;11.966;2023-06-22T02:25:02;100717.78;;;19.94;100.00
32733;BME280;11867;51.198;11.966;2023-06-22T02:26:26;100713.56;;;19.97;100.00
32733;BME280;11867;51.198;11.966;2023-06-22T02:27:49;100717.38;;;20.13;100.00
32733;BME280;11867;51.198;11.966;2023-06-22T02:29:12;100709.53;;;20.15;100.00
32733;BME280;11867;51.198;11.966;2023-06-22T02:30:34;100712.97;;;20.33;100.00
32733;BME280;11867;51.198;11.966;2023-06-22T02:31:59;100704.53;;;20.51;100.00
32733;BME280;11867;51.198;11.966;2023-06-22T02:33:21;100704.63;;;20.63;100.00
32733;BME280;11867;51.198;11.966;2023-06-22T02:34:43;100713.78;;;20.55;100.00
32733;BME280;11867;51.198;11.966;2023-06-22T02:36:09;100705.03;;;20.86;100.00
32733;BME280;11867;51.198;11.966;2023-06-22T02:37:31;100701.88;;;21.09;100.00
32733;BME280;11867;51.198;11.966;2023-06-22T02:38:55;100690.22;;;21.28;100.00
32733;BME280;11867;51.198;11.966;2023-06-22T02:40:22;100687.69;;;21.35;100.00
32733;BME280;11867;51.198;11.966;2023-06-22T02:41:45;100690.69;;;21.30;100.00
32733;BME280;11867;51.198;11.966;2023-06-22T02:43:08;100698.78;;;21.35;100.00
32733;BME280;11867;51.198;11.966;2023-06-22T02:44:31;100698.03;;;21.01;100.00
32733;BME280;11867;51.198;11.966;2023-06-22T02:45:53;100705.09;;;20.65;100.00
32733;BME280;11867;51.198;11.966;2023-06-22T02:47:17;100703.50;;;20.76;100.00
32733;BME280;11867;51.198;11.966;2023-06-22T02:48:40;100701.63;;;21.02;100.00
32733;BME280;11867;51.198;11.966;2023-06-22T02:50:04;100706.41;;;21.26;100.00
32733;BME280;11867;51.198;11.966;2023-06-22T02:51:27;100715.56;;;21.39;100.00
32733;BME280;11867;51.198;11.966;2023-06-22T02:52:50;100718.72;;;21.49;100.00
32733;BME280;11867;51.198;11.966;2023-06-22T02:54:13;100704.03;;;21.49;100.00
32733;BME280;11867;51.198;11.966;2023-06-22T02:55:35;100683.56;;;21.53;100.00
32733;BME280;11867;51.198;11.966;2023-06-22T02:56:57;100690.75;;;21.54;100.00
32733;BME280;11867;51.198;11.966;2023-06-22T02:58:24;100682.38;;;20.72;100.00
32733;BME280;11867;51.198;11.966;2023-06-22T02:59:47;100689.22;;;20.32;100.00
32733;BME280;11867;51.198;11.966;2023-06-22T03:01:10;100690.09;;;20.24;100.00
32733;BME280;11867;51.198;11.966;2023-06-22T03:02:37;100693.34;;;20.26;100.00
32733;BME280;11867;51.198;11.966;2023-06-22T03:03:59;100698.88;;;20.26;100.00
32733;BME280;11867;51.198;11.966;2023-06-22T03:05:22;100702.78;;;20.67;100.00
32733;BME280;11867;51.198;11.966;2023-06-22T03:06:45;100695.56;;;20.87;100.00
32733;BME280;11867;51.198;11.966;2023-06-22T03:08:12;100695.25;;;21.01;100.00
32733;BME280;11867;51.198;11.966;2023-06-22T03:09:35;100695.84;;;20.94;100.00
32733;BME280;11867;51.198;11.966;2023-06-22T03:10:57;100697.56;;;20.99;100.00
32733;BME280;11867;51.198;11.966;2023-06-22T03:12:20;100700.03;;;21.13;100.00
32733;BME280;11867;51.198;11.966;2023-06-22T03:13:43;100703.97;;;21.24;100.00
32733;BME280;11867;51.198;11.966;2023-06-22T03:15:06;100714.63;;;21.34;100.00
32733;BME280;11867;51.198;11.966;2023-06-22T03:16:29;100713.78;;;21.09;100.00
32733;BME280;11867;51.198;11.966;2023-06-22T03:17:53;100712.88;;;21.17;100.00
32733;BME280;11867;51.198;11.966;2023-06-22T03:19:15;100719.44;;;21.13;100.00
32733;BME280;11867;51.198;11.966;2023-06-22T03:20:38;100725.28;;;20.99;100.00
32733;BME280;11867;51.198;11.966;2023-06-22T03:22:01;100717.94;;;21.15;100.00
32733;BME280;11867;51.198;11.966;2023-06-22T03:23:24;100717.69;;;21.08;100.00
32733;BME280;11867;51.198;11.966;2023-06-22T03:24:45;100718.69;;;20.91;100.00
32733;BME280;11867;51.198;11.966;2023-06-22T03:26:08;100720.69;;;21.03;100.00
32733;BME280;11867;51.198;11.966;2023-06-22T03:27:31;100717.69;;;21.08;100.00
32733;BME280;11867;51.198;11.966;2023-06-22T03:28:54;100721.22;;;21.30;100.00
32733;BME280;11867;51.198;11.966;2023-06-22T03:30:16;100733.63;;;21.45;100.00
32733;BME280;11867;51.198;11.966;2023-06-22T03:31:39;100729.41;;;21.39;100.00
32733;BME280;11867;51.198;11.966;2023-06-22T03:33:03;100737.56;;;21.56;99.92
32733;BME280;11867;51.198;11.966;2023-06-22T03:34:26;100752.44;;;21.06;100.00
32733;BME280;11867;51.198;11.966;2023-06-22T03:35:48;100763.53;;;21.06;100.00
32733;BME280;11867;51.198;11.966;2023-06-22T03:37:11;100759.19;;;21.17;100.00
32733;BME280;11867;51.198;11.966;2023-06-22T03:38:34;100765.25;;;20.98;100.00
32733;BME280;11867;51.198;11.966;2023-06-22T03:39:57;100770.34;;;20.75;100.00
32733;BME280;11867;51.198;11.966;2023-06-22T03:41:20;100770.19;;;20.50;100.00
32733;BME280;11867;51.198;11.966;2023-06-22T03:42:43;100773.16;;;20.24;100.00
32733;BME280;11867;51.198;11.966;2023-06-22T03:44:06;100771.94;;;20.34;100.00
32733;BME280;11867;51.198;11.966;2023-06-22T03:45:32;100774.72;;;20.04;100.00
32733;BME280;11867;51.198;11.966;2023-06-22T03:46:55;100783.06;;;20.46;100.00
32733;BME280;11867;51.198;11.966;2023-06-22T03:48:19;100785.50;;;20.78;100.00
32733;BME280;11867;51.198;11.966;2023-06-22T03:49:42;100795.94;;;20.93;100.00
32733;BME280;11867;51.198;11.966;2023-06-22T03:51:04;100791.53;;;21.13;100.00
32733;BME280;11867;51.198;11.966;2023-06-22T03:52:27;100795.38;;;21.33;100.00
32733;BME280;11867;51.198;11.966;2023-06-22T03:53:49;100798.75;;;21.39;100.00
32733;BME280;11867;51.198;11.966;2023-06-22T03:55:12;100815.81;;;21.49;100.00
32733;BME280;11867;51.198;11.966;2023-06-22T03:56:34;100818.25;;;21.51;100.00
32733;BME280;11867;51.198;11.966;2023-06-22T03:58:01;100821.75;;;21.60;100.00
32733;BME280;11867;51.198;11.966;2023-06-22T03:59:27;100817.66;;;21.58;100.00
32733;BME280;11867;51.198;11.966;2023-06-22T04:00:51;100827.84;;;21.53;100.00
32733;BME280;11867;51.198;11.966;2023-06-22T04:02:13;100828.31;;;21.55;100.00
32733;BME280;11867;51.198;11.966;2023-06-22T04:03:38;100828.47;;;21.71;100.00
32733;BME280;11867;51.198;11.966;2023-06-22T04:05:01;100837.34;;;21.31;100.00
32733;BME280;11867;51.198;11.966;2023-06-22T04:06:25;100836.88;;;20.96;100.00
32733;BME280;11867;51.198;11.966;2023-06-22T04:07:48;100835.00;;;21.21;100.00
32733;BME280;11867;51.198;11.966;2023-06-22T04:09:11;100840.63;;;20.91;100.00
32733;BME280;11867;51.198;11.966;2023-06-22T04:10:34;100832.72;;;21.02;100.00
32733;BME280;11867;51.198;11.966;2023-06-22T04:11:56;100830.06;;;21.39;100.00
32733;BME280;11867;51.198;11.966;2023-06-22T04:13:19;100828.31;;;21.68;100.00
32733;BME280;11867;51.198;11.966;2023-06-22T04:14:42;100834.84;;;21.96;99.14
32733;BME280;11867;51.198;11.966;2023-06-22T04:16:04;100836.25;;;22.15;97.47
32733;BME280;11867;51.198;11.966;2023-06-22T04:17:27;100830.81;;;22.19;96.96
32733;BME280;11867;51.198;11.966;2023-06-22T04:18:52;100836.72;;;22.17;97.26
32733;BME280;11867;51.198;11.966;2023-06-22T04:20:15;100825.13;;;22.15;97.26
32733;BME280;11867;51.198;11.966;2023-06-22T04:21:38;100837.41;;;21.89;99.51
32733;BME280;11867;51.198;11.966;2023-06-22T04:23:00;100829.06;;;22.02;98.38
32733;BME280;11867;51.198;11.966;2023-06-22T04:24:23;100827.44;;;22.01;98.71
32733;BME280;11867;51.198;11.966;2023-06-22T04:25:46;100821.63;;;21.69;99.45
32733;BME280;11867;51.198;11.966;2023-06-22T04:27:08;100819.56;;;21.78;100.00
32733;BME280;11867;51.198;11.966;2023-06-22T04:28:30;100819.56;;;22.15;98.30
32733;BME280;11867;51.198;11.966;2023-06-22T04:29:57;100820.63;;;22.10;97.74
32733;BME280;11867;51.198;11.966;2023-06-22T04:31:22;100820.63;;;21.86;99.46
32733;BME280;11867;51.198;11.966;2023-06-22T04:32:53;100813.09;;;22.11;98.18
32733;BME280;11867;51.198;11.966;2023-06-22T04:34:21;100809.06;;;22.33;97.23
32733;BME280;11867;51.198;11.966;2023-06-22T04:35:45;100810.09;;;22.41;96.90
32733;BME280;11867;51.198;11.966;2023-06-22T04:37:08;100810.19;;;22.44;95.86
32733;BME280;11867;51.198;11.966;2023-06-22T04:38:31;100810.09;;;22.41;96.06
32733;BME280;11867;51.198;11.966;2023-06-22T04:39:55;100801.53;;;22.46;95.79
32733;BME280;11867;51.198;11.966;2023-06-22T04:41:18;100798.28;;;22.44;96.39
32733;BME280;11867;51.198;11.966;2023-06-22T04:42:46;100791.47;;;22.41;96.79
32733;BME280;11867;51.198;11.966;2023-06-22T04:44:14;100779.22;;;22.70;95.23
32733;BME280;11867;51.198;11.966;2023-06-22T04:45:46;100779.56;;;22.28;96.99
32733;BME280;11867;51.198;11.966;2023-06-22T04:47:13;100768.25;;;22.62;95.15
32733;BME280;11867;51.198;11.966;2023-06-22T04:48:36;100760.84;;;22.66;94.94
32733;BME280;11867;51.198;11.966;2023-06-22T04:50:01;100759.06;;;22.73;94.95
32733;BME280;11867;51.198;11.966;2023-06-22T04:51:27;100752.66;;;22.85;94.76
32733;BME280;11867;51.198;11.966;2023-06-22T04:52:52;100753.38;;;23.10;92.78
32733;BME280;11867;51.198;11.966;2023-06-22T04:54:15;100764.69;;;23.17;92.60
32733;BME280;11867;51.198;11.966;2023-06-22T04:55:36;100755.13;;;23.47;91.32
32733;BME280;11867;51.198;11.966;2023-06-22T04:57:05;100745.97;;;23.46;90.95
32733;BME280;11867;51.198;11.966;2023-06-22T04:58:31;100729.06;;;23.71;90.26
32733;BME280;11867;51.198;11.966;2023-06-22T04:59:54;100727.31;;;23.63;90.25
32733;BME280;11867;51.198;11.966;2023-06-22T05:01:17;100711.72;;;23.93;89.01
32733;BME280;11867;51.198;11.966;2023-06-22T05:02:41;100701.13;;;23.99;88.45
32733;BME280;11867;51.198;11.966;2023-06-22T05:04:04;100691.88;;;23.95;89.05
32733;BME280;11867;51.198;11.966;2023-06-22T05:05:29;100685.66;;;24.02;89.26
32733;BME280;11867;51.198;11.966;2023-06-22T05:06:53;100680.53;;;24.04;89.21
32733;BME280;11867;51.198;11.966;2023-06-22T05:08:17;100680.41;;;24.16;89.16
32733;BME280;11867;51.198;11.966;2023-06-22T05:09:40;100686.22;;;24.27;88.58
32733;BME280;11867;51.198;11.966;2023-06-22T05:11:02;100683.13;;;24.12;88.76
32733;BME280;11867;51.198;11.966;2023-06-22T05:12:27;100681.28;;;24.20;88.32
32733;BME280;11867;51.198;11.966;2023-06-22T05:13:51;100676.28;;;24.10;88.44
32733;BME280;11867;51.198;11.966;2023-06-22T05:15:13;100676.16;;;24.22;88.45
32733;BME280;11867;51.198;11.966;2023-06-22T05:16:37;100681.44;;;24.27;88.55
32733;BME280;11867;51.198;11.966;2023-06-22T05:18:00;100675.13;;;24.30;88.64
32733;BME280;11867;51.198;11.966;2023-06-22T05:19:27;100677.78;;;24.43;87.86
32733;BME280;11867;51.198;11.966;2023-06-22T05:20:57;100675.75;;;24.59;87.40
32733;BME280;11867;51.198;11.966;2023-06-22T05:22:20;100678.88;;;24.57;87.47
32733;BME280;11867;51.198;11.966;2023-06-22T05:23:43;100680.00;;;24.72;87.65
32733;BME280;11867;51.198;11.966;2023-06-22T05:25:09;100685.41;;;24.65;87.68
32733;BME280;11867;51.198;11.966;2023-06-22T05:26:33;100687.56;;;24.52;88.70
32733;BME280;11867;51.198;11.966;2023-06-22T05:27:56;100682.50;;;24.58;88.74
32733;BME280;11867;51.198;11.966;2023-06-22T05:29:18;100676.09;;;24.38;90.11
32733;BME280;11867;51.198;11.966;2023-06-22T05:30:41;100669.94;;;24.48;90.59
32733;BME280;11867;51.198;11.966;2023-06-22T05:32:05;100659.72;;;24.36;90.55
32733;BME280;11867;51.198;11.966;2023-06-22T05:33:28;100651.13;;;24.45;90.38
32733;BME280;11867;51.198;11.966;2023-06-22T05:34:51;100645.09;;;24.40;90.72
32733;BME280;11867;51.198;11.966;2023-06-22T05:36:15;100637.44;;;24.36;91.78
32733;BME280;11867;51.198;11.966;2023-06-22T05:37:38;100636.34;;;24.22;93.28
32733;BME280;11867;51.198;11.966;2023-06-22T05:39:10;100637.44;;;24.17;93.12
32733;BME280;11867;51.198;11.966;2023-06-22T05:40:33;100639.22;;;24.25;92.52
32733;BME280;11867;51.198;11.966;2023-06-22T05:41:56;100646.69;;;24.41;92.12
32733;BME280;11867;51.198;11.966;2023-06-22T05:43:19;100647.44;;;24.37;92.68
32733;BME280;11867;51.198;11.966;2023-06-22T05:44:42;100644.25;;;24.39;92.46
32733;BME280;11867;51.198;11.966;2023-06-22T05:46:06;100650.22;;;24.57;91.77
32733;BME280;11867;51.198;11.966;2023-06-22T05:47:29;100652.22;;;24.56;92.25
32733;BME280;11867;51.198;11.966;2023-06-22T05:48:51;100653.88;;;24.61;91.50
32733;BME280;11867;51.198;11.966;2023-06-22T05:50:14;100657.25;;;24.70;91.08
32733;BME280;11867;51.198;11.966;2023-06-22T05:51:37;100656.22;;;24.79;90.95
32733;BME280;11867;51.198;11.966;2023-06-22T05:53:00;100659.00;;;24.79;90.30
32733;BME280;11867;51.198;11.966;2023-06-22T05:54:23;100668.59;;;24.81;89.47
32733;BME280;11867;51.198;11.966;2023-06-22T05:55:46;100672.28;;;24.85;88.36
32733;BME280;11867;51.198;11.966;2023-06-22T05:57:09;100667.44;;;25.05;87.80
32733;BME280;11867;51.198;11.966;2023-06-22T05:58:32;100679.53;;;24.90;88.19
32733;BME280;11867;51.198;11.966;2023-06-22T05:59:54;100665.47;;;25.06;87.04
32733;BME280;11867;51.198;11.966;2023-06-22T06:01:17;100672.47;;;25.19;86.64
32733;BME280;11867;51.198;11.966;2023-06-22T06:02:40;100669.88;;;25.30;85.96
32733;BME280;11867;51.198;11.966;2023-06-22T06:04:06;100665.59;;;25.36;85.71
32733;BME280;11867;51.198;11.966;2023-06-22T06:05:30;100674.41;;;25.38;85.19
32733;BME280;11867;51.198;11.966;2023-06-22T06:06:54;100683.63;;;25.42;85.15
32733;BME280;11867;51.198;11.966;2023-06-22T06:08:17;100684.22;;;25.28;85.45
32733;BME280;11867;51.198;11.966;2023-06-22T06:09:40;100688.97;;;25.28;85.18
32733;BME280;11867;51.198;11.966;2023-06-22T06:11:03;100692.53;;;25.05;86.67
32733;BME280;11867;51.198;11.966;2023-06-22T06:12:26;100686.41;;;25.19;85.91
32733;BME280;11867;51.198;11.966;2023-06-22T06:13:49;100694.56;;;25.28;85.03
32733;BME280;11867;51.198;11.966;2023-06-22T06:15:12;100693.53;;;25.63;84.04
32733;BME280;11867;51.198;11.966;2023-06-22T06:16:35;100691.22;;;25.42;84.28
32733;BME280;11867;51.198;11.966;2023-06-22T06:17:58;100699.31;;;25.50;84.30
32733;BME280;11867;51.198;11.966;2023-06-22T06:19:21;100694.56;;;25.77;83.52
32733;BME280;11867;51.198;11.966;2023-06-22T06:20:44;100699.38;;;26.04;82.12
32733;BME280;11867;51.198;11.966;2023-06-22T06:22:08;100702.72;;;26.13;82.42
32733;BME280;11867;51.198;11.966;2023-06-22T06:23:31;100705.66;;;26.27;81.92
32733;BME280;11867;51.198;11.966;2023-06-22T06:24:54;100705.81;;;26.38;80.59
32733;BME280;11867;51.198;11.966;2023-06-22T06:26:16;100709.59;;;25.92;81.77
32733;BME280;11867;51.198;11.966;2023-06-22T06:27:40;100708.00;;;25.68;83.87
32733;BME280;11867;51.198;11.966;2023-06-22T06:29:02;100709.63;;;25.96;82.77
32733;BME280;11867;51.198;11.966;2023-06-22T06:30:25;100702.38;;;25.42;84.01
32733;BME280;11867;51.198;11.966;2023-06-22T06:31:49;100700.97;;;25.78;83.53
32733;BME280;11867;51.198;11.966;2023-06-22T06:33:15;100697.19;;;26.20;82.53
32733;BME280;11867;51.198;11.966;2023-06-22T06:34:38;100693.03;;;26.37;81.31
32733;BME280;11867;51.198;11.966;2023-06-22T06:36:02;100695.69;;;26.26;81.88
32733;BME280;11867;51.198;11.966;2023-06-22T06:37:26;100699.41;;;26.37;82.40
32733;BME280;11867;51.198;11.966;2023-06-22T06:38:49;100707.53;;;26.16;82.13
32733;BME280;11867;51.198;11.966;2023-06-22T06:40:13;100697.50;;;26.11;83.04
32733;BME280;11867;51.198;11.966;2023-06-22T06:41:37;100700.56;;;26.03;82.67
32733;BME280;11867;51.198;11.966;2023-06-22T06:42:59;100694.84;;;26.22;83.37
32733;BME280;11867;51.198;11.966;2023-06-22T06:44:21;100704.34;;;26.48;81.62
32733;BME280;11867;51.198;11.966;2023-06-22T06:45:44;100698.75;;;26.48;81.04
32733;BME280;11867;51.198;11.966;2023-06-22T06:47:07;100702.09;;;26.57;81.75
32733;BME280;11867;51.198;11.966;2023-06-22T06:48:30;100704.97;;;26.64;81.07
32733;BME280;11867;51.198;11.966;2023-06-22T06:49:53;100696.56;;;26.61;81.27
32733;BME280;11867;51.198;11.966;2023-06-22T06:51:15;100699.03;;;26.69;81.05
32733;BME280;11867;51.198;11.966;2023-06-22T06:52:40;100702.88;;;26.27;82.25
32733;BME280;11867;51.198;11.966;2023-06-22T06:54:03;100703.94;;;25.20;86.56
32733;BME280;11867;51.198;11.966;2023-06-22T06:55:26;100708.75;;;24.76;88.57
32733;BME280;11867;51.198;11.966;2023-06-22T06:56:51;100703.75;;;24.47;90.89
32733;BME280;11867;51.198;11.966;2023-06-22T06:58:14;100701.31;;;24.45;90.14
32733;BME280;11867;51.198;11.966;2023-06-22T06:59:38;100707.53;;;24.54;89.81
32733;BME280;11867;51.198;11.966;2023-06-22T07:01:00;100704.75;;;24.38;91.47
32733;BME280;11867;51.198;11.966;2023-06-22T07:02:26;100702.84;;;24.23;92.52
32733;BME280;11867;51.198;11.966;2023-06-22T07:03:49;100710.34;;;24.38;92.84
32733;BME280;11867;51.198;11.966;2023-06-22T07:05:13;100704.63;;;24.90;91.06
32733;BME280;11867;51.198;11.966;2023-06-22T07:06:35;100702.63;;;25.33;87.44
32733;BME280;11867;51.198;11.966;2023-06-22T07:08:00;100705.78;;;25.54;85.83
32733;BME280;11867;51.198;11.966;2023-06-22T07:09:23;100700.13;;;25.74;85.32
32733;BME280;11867;51.198;11.966;2023-06-22T07:10:46;100705.97;;;25.92;84.10
32733;BME280;11867;51.198;11.966;2023-06-22T07:12:09;100710.50;;;25.27;85.50
32733;BME280;11867;51.198;11.966;2023-06-22T07:13:32;100707.25;;;25.02;87.68